sensor_id;sensor_type;location;lat;lon;timestamp;temperature;humidity
47482;DHT22;33219;47.410;9.730;2023-02-01T00:00:39;2.50;99.90
47482;DHT22;33219;47.410;9.730;2023-02-01T00:03:07;2.40;99.90
47482;DHT22;33219;47.410;9.730;2023-02-01T00:05:35;2.40;99.90
47482;DHT22;33219;47.410;9.730;2023-02-01T00:08:02;2.40;99.90
47482;DHT22;33219;47.410;9.730;2023-02-01T00:10:30;2.40;99.90
47482;DHT22;33219;47.410;9.730;2023-02-01T00:12:58;2.30;99.90
47482;DHT22;33219;47.410;9.730;2023-02-01T00:15:25;2.30;99.90
47482;DHT22;33219;47.410;9.730;2023-02-01T00:17:54;2.30;99.90
47482;DHT22;33219;47.410;9.730;2023-02-01T00:20:22;2.20;99.90
47482;DHT22;33219;47.410;9.730;2023-02-01T00:22:49;2.20;99.90
47482;DHT22;33219;47.410;9.730;2023-02-01T00:25:17;2.20;99.90
47482;DHT22;33219;47.410;9.730;2023-02-01T00:27:49;2.20;99.90
47482;DHT22;33219;47.410;9.730;2023-02-01T00:30:17;2.20;99.90
47482;DHT22;33219;47.410;9.730;2023-02-01T00:32:45;2.20;99.90
47482;DHT22;33219;47.410;9.730;2023-02-01T00:35:12;2.20;99.90
47482;DHT22;33219;47.410;9.730;2023-02-01T00:37:40;2.20;99.90
47482;DHT22;33219;47.410;9.730;2023-02-01T00:40:08;2.30;99.90
47482;DHT22;33219;47.410;9.730;2023-02-01T00:42:36;2.20;99.90
47482;DHT22;33219;47.410;9.730;2023-02-01T00:45:04;2.20;99.90
47482;DHT22;33219;47.410;9.730;2023-02-01T00:47:32;2.30;99.90
47482;DHT22;33219;47.410;9.730;2023-02-01T00:49:59;2.30;99.90
47482;DHT22;33219;47.410;9.730;2023-02-01T00:52:27;2.30;99.90
47482;DHT22;33219;47.410;9.730;2023-02-01T00:54:55;2.20;99.90
47482;DHT22;33219;47.410;9.730;2023-02-01T00:57:22;2.20;99.90
47482;DHT22;33219;47.410;9.730;2023-02-01T00:59:50;2.30;99.90
47482;DHT22;33219;47.410;9.730;2023-02-01T01:02:17;2.30;99.90
47482;DHT22;33219;47.410;9.730;2023-02-01T01:04:45;2.30;99.90
47482;DHT22;33219;47.410;9.730;2023-02-01T01:07:13;2.30;99.90
47482;DHT22;33219;47.410;9.730;2023-02-01T01:09:40;2.20;99.90
47482;DHT22;33219;47.410;9.730;2023-02-01T01:12:08;2.30;99.90
47482;DHT22;33219;47.410;9.730;2023-02-01T01:14:36;2.30;99.90
47482;DHT22;33219;47.410;9.730;2023-02-01T01:17:03;2.30;99.90
47482;DHT22;33219;47.410;9.730;2023-02-01T01:19:31;2.30;99.90
47482;DHT22;33219;47.410;9.730;2023-02-01T01:21:58;2.30;99.90
47482;DHT22;33219;47.410;9.730;2023-02-01T01:24:26;2.40;99.90
47482;DHT22;33219;47.410;9.730;2023-02-01T01:26:53;2.40;99.90
47482;DHT22;33219;47.410;9.730;2023-02-01T01:29:21;2.40;99.90
47482;DHT22;33219;47.410;9.730;2023-02-01T01:31:48;2.40;99.90
47482;DHT22;33219;47.410;9.730;2023-02-01T01:34:16;2.40;99.90
47482;DHT22;33219;47.410;9.730;2023-02-01T01:36:43;2.40;99.90
47482;DHT22;33219;47.410;9.730;2023-02-01T01:39:11;2.30;99.90
47482;DHT22;33219;47.410;9.730;2023-02-01T01:41:39;2.30;99.90
47482;DHT22;33219;47.410;9.730;2023-02-01T01:44:54;2.30;99.90
47482;DHT22;33219;47.410;9.730;2023-02-01T01:46:37;2.30;99.90
47482;DHT22;33219;47.410;9.730;2023-02-01T01:49:17;2.30;99.90
47482;DHT22;33219;47.410;9.730;2023-02-01T01:51:55;2.30;99.90
47482;DHT22;33219;47.410;9.730;2023-02-01T01:54:35;2.30;99.90
47482;DHT22;33219;47.410;9.730;2023-02-01T01:57:07;2.30;99.90
47482;DHT22;33219;47.410;9.730;2023-02-01T01:59:36;2.40;99.90
47482;DHT22;33219;47.410;9.730;2023-02-01T02:02:05;2.40;99.90
47482;DHT22;33219;47.410;9.730;2023-02-01T02:04:34;2.40;99.90
47482;DHT22;33219;47.410;9.730;2023-02-01T02:07:10;2.40;99.90
47482;DHT22;33219;47.410;9.730;2023-02-01T02:09:39;2.40;99.90
47482;DHT22;33219;47.410;9.730;2023-02-01T02:12:07;2.40;99.90
47482;DHT22;33219;47.410;9.730;2023-02-01T02:14:34;2.30;99.90
47482;DHT22;33219;47.410;9.730;2023-02-01T02:23:22;2.30;99.90
47482;DHT22;33219;47.410;9.730;2023-02-01T02:36:59;2.30;99.90
47482;DHT22;33219;47.410;9.730;2023-02-01T02:42:24;2.30;99.90
47482;DHT22;33219;47.410;9.730;2023-02-01T02:45:09;2.30;99.90
47482;DHT22;33219;47.410;9.730;2023-02-01T02:53:32;2.40;99.90
47482;DHT22;33219;47.410;9.730;2023-02-01T02:56:18;2.40;99.90
47482;DHT22;33219;47.410;9.730;2023-02-01T02:59:07;2.40;99.90
47482;DHT22;33219;47.410;9.730;2023-02-01T03:01:55;2.30;99.90
47482;DHT22;33219;47.410;9.730;2023-02-01T03:04:40;2.30;99.90
47482;DHT22;33219;47.410;9.730;2023-02-01T03:07:13;2.40;99.90
47482;DHT22;33219;47.410;9.730;2023-02-01T03:09:44;2.40;99.90
47482;DHT22;33219;47.410;9.730;2023-02-01T03:12:15;2.40;99.90
47482;DHT22;33219;47.410;9.730;2023-02-01T03:15:08;2.40;99.90
47482;DHT22;33219;47.410;9.730;2023-02-01T03:17:36;2.40;99.90
47482;DHT22;33219;47.410;9.730;2023-02-01T03:20:04;2.30;99.90
47482;DHT22;33219;47.410;9.730;2023-02-01T03:22:34;2.30;99.90
47482;DHT22;33219;47.410;9.730;2023-02-01T03:25:09;2.30;99.90
47482;DHT22;33219;47.410;9.730;2023-02-01T03:27:40;2.30;99.90
47482;DHT22;33219;47.410;9.730;2023-02-01T03:30:24;2.30;99.90
47482;DHT22;33219;47.410;9.730;2023-02-01T03:32:55;2.30;99.90
47482;DHT22;33219;47.410;9.730;2023-02-01T03:38:32;2.40;99.90
47482;DHT22;33219;47.410;9.730;2023-02-01T03:43:43;2.50;99.90
47482;DHT22;33219;47.410;9.730;2023-02-01T03:46:09;2.50;99.90
47482;DHT22;33219;47.410;9.730;2023-02-01T03:48:38;2.60;99.90
47482;DHT22;33219;47.410;9.730;2023-02-01T03:51:07;2.60;99.90
47482;DHT22;33219;47.410;9.730;2023-02-01T03:53:36;2.60;99.90
47482;DHT22;33219;47.410;9.730;2023-02-01T03:56:06;2.60;99.90
47482;DHT22;33219;47.410;9.730;2023-02-01T03:58:34;2.60;99.90
47482;DHT22;33219;47.410;9.730;2023-02-01T04:01:02;2.60;99.90
47482;DHT22;33219;47.410;9.730;2023-02-01T04:03:30;2.50;99.90
47482;DHT22;33219;47.410;9.730;2023-02-01T04:05:58;2.50;99.90
47482;DHT22;33219;47.410;9.730;2023-02-01T04:08:26;2.50;99.90
47482;DHT22;33219;47.410;9.730;2023-02-01T04:10:53;2.40;99.90
47482;DHT22;33219;47.410;9.730;2023-02-01T04:13:21;2.30;99.90
47482;DHT22;33219;47.410;9.730;2023-02-01T04:15:49;2.30;99.90
47482;DHT22;33219;47.410;9.730;2023-02-01T04:18:16;2.20;99.90
47482;DHT22;33219;47.410;9.730;2023-02-01T04:20:44;2.20;99.90
47482;DHT22;33219;47.410;9.730;2023-02-01T04:23:11;2.20;99.90
47482;DHT22;33219;47.410;9.730;2023-02-01T04:25:39;2.20;99.90
47482;DHT22;33219;47.410;9.730;2023-02-01T04:28:07;2.10;99.90
47482;DHT22;33219;47.410;9.730;2023-02-01T04:30:35;2.20;99.90
47482;DHT22;33219;47.410;9.730;2023-02-01T04:33:03;2.10;99.90
47482;DHT22;33219;47.410;9.730;2023-02-01T04:35:34;2.10;99.90
47482;DHT22;33219;47.410;9.730;2023-02-01T04:38:01;2.10;99.90
47482;DHT22;33219;47.410;9.730;2023-02-01T04:40:29;2.10;99.90
47482;DHT22;33219;47.410;9.730;2023-02-01T04:42:56;2.10;99.90
47482;DHT22;33219;47.410;9.730;2023-02-01T04:45:24;2.20;99.90
47482;DHT22;33219;47.410;9.730;2023-02-01T04:47:52;2.20;99.90
47482;DHT22;33219;47.410;9.730;2023-02-01T04:50:19;2.20;99.90
47482;DHT22;33219;47.410;9.730;2023-02-01T04:52:47;2.20;99.90
47482;DHT22;33219;47.410;9.730;2023-02-01T04:55:14;2.20;99.90
47482;DHT22;33219;47.410;9.730;2023-02-01T04:57:42;2.10;99.90
47482;DHT22;33219;47.410;9.730;2023-02-01T05:00:10;2.10;99.90
47482;DHT22;33219;47.410;9.730;2023-02-01T05:02:39;2.10;99.90
47482;DHT22;33219;47.410;9.730;2023-02-01T05:05:07;2.20;99.90
47482;DHT22;33219;47.410;9.730;2023-02-01T05:07:35;2.20;99.90
47482;DHT22;33219;47.410;9.730;2023-02-01T05:10:03;2.20;99.90
47482;DHT22;33219;47.410;9.730;2023-02-01T05:12:30;2.20;99.90
47482;DHT22;33219;47.410;9.730;2023-02-01T05:15:15;2.10;99.90
47482;DHT22;33219;47.410;9.730;2023-02-01T05:17:43;2.20;99.90
47482;DHT22;33219;47.410;9.730;2023-02-01T05:20:11;2.10;99.90
47482;DHT22;33219;47.410;9.730;2023-02-01T05:22:38;2.10;99.90
47482;DHT22;33219;47.410;9.730;2023-02-01T05:25:06;2.10;99.90
47482;DHT22;33219;47.410;9.730;2023-02-01T05:27:34;2.10;99.90
47482;DHT22;33219;47.410;9.730;2023-02-01T05:30:04;2.20;99.90
47482;DHT22;33219;47.410;9.730;2023-02-01T05:32:32;2.20;99.90
47482;DHT22;33219;47.410;9.730;2023-02-01T05:35:01;2.20;99.90
47482;DHT22;33219;47.410;9.730;2023-02-01T05:37:29;2.20;99.90
47482;DHT22;33219;47.410;9.730;2023-02-01T05:39:56;2.20;99.90
47482;DHT22;33219;47.410;9.730;2023-02-01T05:42:24;2.30;99.90
47482;DHT22;33219;47.410;9.730;2023-02-01T05:44:51;2.30;99.90
47482;DHT22;33219;47.410;9.730;2023-02-01T05:47:19;2.30;99.90
47482;DHT22;33219;47.410;9.730;2023-02-01T05:49:47;2.40;99.90
47482;DHT22;33219;47.410;9.730;2023-02-01T05:52:14;2.40;99.90
47482;DHT22;33219;47.410;9.730;2023-02-01T05:54:44;2.50;99.90
47482;DHT22;33219;47.410;9.730;2023-02-01T05:57:11;2.50;99.90
47482;DHT22;33219;47.410;9.730;2023-02-01T05:59:39;2.50;99.90
47482;DHT22;33219;47.410;9.730;2023-02-01T06:02:12;2.70;99.90
47482;DHT22;33219;47.410;9.730;2023-02-01T06:04:40;2.70;99.90
47482;DHT22;33219;47.410;9.730;2023-02-01T06:07:08;2.80;99.90
47482;DHT22;33219;47.410;9.730;2023-02-01T06:09:37;3.00;99.90
47482;DHT22;33219;47.410;9.730;2023-02-01T06:12:05;3.00;99.90
47482;DHT22;33219;47.410;9.730;2023-02-01T06:14:32;3.10;99.90
47482;DHT22;33219;47.410;9.730;2023-02-01T06:17:00;3.20;99.90
47482;DHT22;33219;47.410;9.730;2023-02-01T06:19:27;3.20;99.90
47482;DHT22;33219;47.410;9.730;2023-02-01T06:21:55;3.10;99.90
47482;DHT22;33219;47.410;9.730;2023-02-01T06:24:23;3.00;99.90
47482;DHT22;33219;47.410;9.730;2023-02-01T06:26:51;2.90;99.90
47482;DHT22;33219;47.410;9.730;2023-02-01T06:29:18;2.70;99.90
47482;DHT22;33219;47.410;9.730;2023-02-01T06:31:46;2.70;99.90
47482;DHT22;33219;47.410;9.730;2023-02-01T06:34:14;2.50;99.90
47482;DHT22;33219;47.410;9.730;2023-02-01T06:36:50;2.50;99.90
47482;DHT22;33219;47.410;9.730;2023-02-01T06:39:24;2.30;99.90
47482;DHT22;33219;47.410;9.730;2023-02-01T06:42:00;2.30;99.90
47482;DHT22;33219;47.410;9.730;2023-02-01T06:44:38;2.30;99.90
47482;DHT22;33219;47.410;9.730;2023-02-01T06:47:11;2.20;99.90
47482;DHT22;33219;47.410;9.730;2023-02-01T06:50:05;2.20;99.90
47482;DHT22;33219;47.410;9.730;2023-02-01T06:56:10;2.20;99.90
47482;DHT22;33219;47.410;9.730;2023-02-01T06:58:48;2.20;99.90
47482;DHT22;33219;47.410;9.730;2023-02-01T07:01:26;2.10;99.90
47482;DHT22;33219;47.410;9.730;2023-02-01T07:04:08;2.20;99.90
47482;DHT22;33219;47.410;9.730;2023-02-01T07:06:43;2.20;99.90
47482;DHT22;33219;47.410;9.730;2023-02-01T07:09:19;2.20;99.90
47482;DHT22;33219;47.410;9.730;2023-02-01T07:11:54;2.20;99.90
47482;DHT22;33219;47.410;9.730;2023-02-01T07:14:31;2.20;99.90
47482;DHT22;33219;47.410;9.730;2023-02-01T07:17:04;2.20;99.90
47482;DHT22;33219;47.410;9.730;2023-02-01T07:19:46;2.20;99.90
47482;DHT22;33219;47.410;9.730;2023-02-01T07:22:20;2.30;99.90
47482;DHT22;33219;47.410;9.730;2023-02-01T07:24:56;2.20;99.90
47482;DHT22;33219;47.410;9.730;2023-02-01T07:27:33;2.30;99.90
47482;DHT22;33219;47.410;9.730;2023-02-01T07:30:06;2.20;99.90
47482;DHT22;33219;47.410;9.730;2023-02-01T07:32:49;2.30;99.90
47482;DHT22;33219;47.410;9.730;2023-02-01T07:35:20;2.40;99.90
47482;DHT22;33219;47.410;9.730;2023-02-01T07:37:55;2.40;99.90
47482;DHT22;33219;47.410;9.730;2023-02-01T07:40:29;2.50;99.90
47482;DHT22;33219;47.410;9.730;2023-02-01T07:43:04;2.50;99.90
47482;DHT22;33219;47.410;9.730;2023-02-01T07:45:55;2.40;99.90
47482;DHT22;33219;47.410;9.730;2023-02-01T07:51:48;2.40;99.90
47482;DHT22;33219;47.410;9.730;2023-02-01T07:54:25;2.50;99.90
47482;DHT22;33219;47.410;9.730;2023-02-01T07:57:01;2.40;99.90
47482;DHT22;33219;47.410;9.730;2023-02-01T07:59:36;2.40;99.90
47482;DHT22;33219;47.410;9.730;2023-02-01T08:02:13;2.40;99.90
47482;DHT22;33219;47.410;9.730;2023-02-01T08:04:50;2.30;99.90
47482;DHT22;33219;47.410;9.730;2023-02-01T08:07:23;2.40;99.90
47482;DHT22;33219;47.410;9.730;2023-02-01T08:09:58;2.30;99.90
47482;DHT22;33219;47.410;9.730;2023-02-01T08:12:34;2.30;99.90
47482;DHT22;33219;47.410;9.730;2023-02-01T08:15:08;2.40;99.90
47482;DHT22;33219;47.410;9.730;2023-02-01T08:17:48;2.40;99.90
47482;DHT22;33219;47.410;9.730;2023-02-01T08:20:22;2.40;99.90
47482;DHT22;33219;47.410;9.730;2023-02-01T08:22:57;2.40;99.90
47482;DHT22;33219;47.410;9.730;2023-02-01T08:25:31;2.50;99.90
47482;DHT22;33219;47.410;9.730;2023-02-01T08:28:06;2.50;99.90
47482;DHT22;33219;47.410;9.730;2023-02-01T08:30:41;2.50;99.90
47482;DHT22;33219;47.410;9.730;2023-02-01T08:39:45;2.50;99.90
47482;DHT22;33219;47.410;9.730;2023-02-01T08:42:22;2.50;99.90
47482;DHT22;33219;47.410;9.730;2023-02-01T08:45:11;2.50;99.90
47482;DHT22;33219;47.410;9.730;2023-02-01T08:47:52;2.50;99.90
47482;DHT22;33219;47.410;9.730;2023-02-01T08:50:30;2.50;99.90
47482;DHT22;33219;47.410;9.730;2023-02-01T08:56:10;2.70;99.90
47482;DHT22;33219;47.410;9.730;2023-02-01T08:58:47;2.80;99.90
47482;DHT22;33219;47.410;9.730;2023-02-01T09:01:21;2.90;99.90
47482;DHT22;33219;47.410;9.730;2023-02-01T09:03:56;3.00;99.90
47482;DHT22;33219;47.410;9.730;2023-02-01T09:06:32;3.00;99.90
47482;DHT22;33219;47.410;9.730;2023-02-01T09:18:12;3.20;99.90
47482;DHT22;33219;47.410;9.730;2023-02-01T09:21:08;3.30;99.90
47482;DHT22;33219;47.410;9.730;2023-02-01T09:32:55;3.10;99.90
47482;DHT22;33219;47.410;9.730;2023-02-01T09:35:27;3.10;99.90
47482;DHT22;33219;47.410;9.730;2023-02-01T09:38:02;3.00;99.90
47482;DHT22;33219;47.410;9.730;2023-02-01T09:40:42;3.00;99.90
47482;DHT22;33219;47.410;9.730;2023-02-01T09:43:25;3.00;99.90
47482;DHT22;33219;47.410;9.730;2023-02-01T11:09:09;5.40;99.90
47482;DHT22;33219;47.410;9.730;2023-02-01T11:11:23;5.40;99.90
47482;DHT22;33219;47.410;9.730;2023-02-01T11:19:27;5.50;99.90
47482;DHT22;33219;47.410;9.730;2023-02-01T11:22:03;5.70;99.90
47482;DHT22;33219;47.410;9.730;2023-02-01T11:24:36;5.60;99.90
47482;DHT22;33219;47.410;9.730;2023-02-01T11:37:29;4.80;99.90
47482;DHT22;33219;47.410;9.730;2023-02-01T11:42:24;4.60;99.90
47482;DHT22;33219;47.410;9.730;2023-02-01T11:48:07;4.60;99.90
47482;DHT22;33219;47.410;9.730;2023-02-01T11:50:49;4.60;99.90
47482;DHT22;33219;47.410;9.730;2023-02-01T11:56:33;4.70;99.90
47482;DHT22;33219;47.410;9.730;2023-02-01T11:59:14;4.80;99.90
47482;DHT22;33219;47.410;9.730;2023-02-01T12:07:14;4.90;99.90
47482;DHT22;33219;47.410;9.730;2023-02-01T12:30:28;5.80;99.90
47482;DHT22;33219;47.410;9.730;2023-02-01T12:38:46;5.70;99.90
47482;DHT22;33219;47.410;9.730;2023-02-01T12:41:25;5.70;99.90
47482;DHT22;33219;47.410;9.730;2023-02-01T12:43:55;5.70;99.90
47482;DHT22;33219;47.410;9.730;2023-02-01T12:46:34;5.70;99.90
47482;DHT22;33219;47.410;9.730;2023-02-01T12:49:47;5.80;99.90
47482;DHT22;33219;47.410;9.730;2023-02-01T12:51:39;5.70;99.90
47482;DHT22;33219;47.410;9.730;2023-02-01T12:56:49;5.60;99.90
47482;DHT22;33219;47.410;9.730;2023-02-01T12:59:26;5.60;99.90
47482;DHT22;33219;47.410;9.730;2023-02-01T13:04:34;5.60;99.90
47482;DHT22;33219;47.410;9.730;2023-02-01T13:07:11;5.60;99.90
47482;DHT22;33219;47.410;9.730;2023-02-01T13:09:47;5.60;99.90
47482;DHT22;33219;47.410;9.730;2023-02-01T13:12:36;5.70;99.90
47482;DHT22;33219;47.410;9.730;2023-02-01T13:15:04;5.70;99.90
47482;DHT22;33219;47.410;9.730;2023-02-01T13:17:32;5.90;99.90
47482;DHT22;33219;47.410;9.730;2023-02-01T13:20:13;5.90;99.90
47482;DHT22;33219;47.410;9.730;2023-02-01T13:22:43;5.90;99.90
47482;DHT22;33219;47.410;9.730;2023-02-01T13:25:40;5.90;99.90
47482;DHT22;33219;47.410;9.730;2023-02-01T13:28:04;5.80;99.90
47482;DHT22;33219;47.410;9.730;2023-02-01T13:30:46;5.80;99.90
47482;DHT22;33219;47.410;9.730;2023-02-01T13:33:31;5.90;99.90
47482;DHT22;33219;47.410;9.730;2023-02-01T13:39:12;5.80;99.90
47482;DHT22;33219;47.410;9.730;2023-02-01T13:41:52;5.90;99.90
47482;DHT22;33219;47.410;9.730;2023-02-01T13:46:58;6.10;99.90
47482;DHT22;33219;47.410;9.730;2023-02-01T13:49:30;6.10;99.90
47482;DHT22;33219;47.410;9.730;2023-02-01T13:51:58;6.10;99.90
47482;DHT22;33219;47.410;9.730;2023-02-01T13:54:30;6.10;99.90
47482;DHT22;33219;47.410;9.730;2023-02-01T13:57:02;6.10;99.90
47482;DHT22;33219;47.410;9.730;2023-02-01T14:05:12;6.10;99.90
47482;DHT22;33219;47.410;9.730;2023-02-01T14:08:02;6.10;99.90
47482;DHT22;33219;47.410;9.730;2023-02-01T14:16:29;5.90;99.90
47482;DHT22;33219;47.410;9.730;2023-02-01T14:21:25;5.80;99.90
47482;DHT22;33219;47.410;9.730;2023-02-01T14:24:01;5.80;99.90
47482;DHT22;33219;47.410;9.730;2023-02-01T14:32:01;5.70;99.90
47482;DHT22;33219;47.410;9.730;2023-02-01T14:42:27;5.70;99.90
47482;DHT22;33219;47.410;9.730;2023-02-01T14:47:54;5.70;99.90
47482;DHT22;33219;47.410;9.730;2023-02-01T14:50:27;5.80;99.90
47482;DHT22;33219;47.410;9.730;2023-02-01T14:55:53;5.70;99.90
47482;DHT22;33219;47.410;9.730;2023-02-01T15:01:04;5.80;99.90
47482;DHT22;33219;47.410;9.730;2023-02-01T15:03:50;5.80;99.90
47482;DHT22;33219;47.410;9.730;2023-02-01T15:08:52;6.00;99.90
47482;DHT22;33219;47.410;9.730;2023-02-01T15:11:21;6.00;99.90
47482;DHT22;33219;47.410;9.730;2023-02-01T15:13:53;6.00;99.90
47482;DHT22;33219;47.410;9.730;2023-02-01T15:16:24;5.90;99.90
47482;DHT22;33219;47.410;9.730;2023-02-01T15:19:09;5.90;99.90
47482;DHT22;33219;47.410;9.730;2023-02-01T15:21:46;5.80;99.90
47482;DHT22;33219;47.410;9.730;2023-02-01T15:24:19;5.80;99.90
47482;DHT22;33219;47.410;9.730;2023-02-01T15:26:44;5.80;99.90
47482;DHT22;33219;47.410;9.730;2023-02-01T15:29:13;5.70;99.90
47482;DHT22;33219;47.410;9.730;2023-02-01T15:31:45;5.60;99.90
47482;DHT22;33219;47.410;9.730;2023-02-01T15:34:14;5.60;99.90
47482;DHT22;33219;47.410;9.730;2023-02-01T15:36:43;5.60;99.90
47482;DHT22;33219;47.410;9.730;2023-02-01T15:39:24;5.60;99.90
47482;DHT22;33219;47.410;9.730;2023-02-01T15:41:58;5.60;99.90
47482;DHT22;33219;47.410;9.730;2023-02-01T15:44:37;5.50;99.90
47482;DHT22;33219;47.410;9.730;2023-02-01T15:47:17;5.50;99.90
47482;DHT22;33219;47.410;9.730;2023-02-01T15:49:47;5.50;99.90
47482;DHT22;33219;47.410;9.730;2023-02-01T15:52:27;5.40;99.90
47482;DHT22;33219;47.410;9.730;2023-02-01T15:54:57;5.40;99.90
47482;DHT22;33219;47.410;9.730;2023-02-01T15:57:31;5.40;99.90
47482;DHT22;33219;47.410;9.730;2023-02-01T16:00:02;5.40;99.90
47482;DHT22;33219;47.410;9.730;2023-02-01T16:02:51;5.40;99.90
47482;DHT22;33219;47.410;9.730;2023-02-01T16:05:30;5.30;99.90
47482;DHT22;33219;47.410;9.730;2023-02-01T16:08:04;5.30;99.90
47482;DHT22;33219;47.410;9.730;2023-02-01T16:10:37;5.30;99.90
47482;DHT22;33219;47.410;9.730;2023-02-01T16:13:01;5.30;99.90
47482;DHT22;33219;47.410;9.730;2023-02-01T16:15:28;5.30;99.90
47482;DHT22;33219;47.410;9.730;2023-02-01T16:17:56;5.20;99.90
47482;DHT22;33219;47.410;9.730;2023-02-01T16:20:24;5.20;99.90
47482;DHT22;33219;47.410;9.730;2023-02-01T16:22:56;5.20;99.90
47482;DHT22;33219;47.410;9.730;2023-02-01T16:25:24;5.10;99.90
47482;DHT22;33219;47.410;9.730;2023-02-01T16:27:52;5.10;99.90
47482;DHT22;33219;47.410;9.730;2023-02-01T16:30:19;5.20;99.90
47482;DHT22;33219;47.410;9.730;2023-02-01T16:32:58;5.20;99.90
47482;DHT22;33219;47.410;9.730;2023-02-01T16:35:32;5.30;99.90
47482;DHT22;33219;47.410;9.730;2023-02-01T16:38:08;5.30;99.90
47482;DHT22;33219;47.410;9.730;2023-02-01T16:40:36;5.30;99.90
47482;DHT22;33219;47.410;9.730;2023-02-01T16:43:21;5.20;99.90
47482;DHT22;33219;47.410;9.730;2023-02-01T16:45:51;5.20;99.90
47482;DHT22;33219;47.410;9.730;2023-02-01T16:48:24;5.20;99.90
47482;DHT22;33219;47.410;9.730;2023-02-01T16:50:58;5.20;99.90
47482;DHT22;33219;47.410;9.730;2023-02-01T16:53:28;5.20;99.90
47482;DHT22;33219;47.410;9.730;2023-02-01T16:55:56;5.20;99.90
47482;DHT22;33219;47.410;9.730;2023-02-01T16:58:26;5.20;99.90
47482;DHT22;33219;47.410;9.730;2023-02-01T17:00:54;5.20;99.90
47482;DHT22;33219;47.410;9.730;2023-02-01T17:03:22;5.20;99.90
47482;DHT22;33219;47.410;9.730;2023-02-01T17:05:52;5.20;99.90
47482;DHT22;33219;47.410;9.730;2023-02-01T17:08:31;5.20;99.90
47482;DHT22;33219;47.410;9.730;2023-02-01T17:11:00;5.20;99.90
47482;DHT22;33219;47.410;9.730;2023-02-01T17:13:27;5.20;99.90
47482;DHT22;33219;47.410;9.730;2023-02-01T17:16:01;5.30;99.90
47482;DHT22;33219;47.410;9.730;2023-02-01T17:18:32;5.20;99.90
47482;DHT22;33219;47.410;9.730;2023-02-01T17:21:02;5.20;99.90
47482;DHT22;33219;47.410;9.730;2023-02-01T17:23:31;5.20;99.90
47482;DHT22;33219;47.410;9.730;2023-02-01T17:26:00;5.10;99.90
47482;DHT22;33219;47.410;9.730;2023-02-01T17:28:29;5.20;99.90
47482;DHT22;33219;47.410;9.730;2023-02-01T17:30:57;5.10;99.90
47482;DHT22;33219;47.410;9.730;2023-02-01T17:33:27;5.20;99.90
47482;DHT22;33219;47.410;9.730;2023-02-01T17:35:56;5.20;99.90
47482;DHT22;33219;47.410;9.730;2023-02-01T17:38:25;5.20;99.90
47482;DHT22;33219;47.410;9.730;2023-02-01T17:40:52;5.10;99.90
47482;DHT22;33219;47.410;9.730;2023-02-01T17:43:24;5.10;99.90
47482;DHT22;33219;47.410;9.730;2023-02-01T17:45:59;5.10;99.90
47482;DHT22;33219;47.410;9.730;2023-02-01T17:48:28;5.10;99.90
47482;DHT22;33219;47.410;9.730;2023-02-01T17:50:56;5.10;99.90
47482;DHT22;33219;47.410;9.730;2023-02-01T17:53:28;5.10;99.90
47482;DHT22;33219;47.410;9.730;2023-02-01T17:55:56;5.20;99.90
47482;DHT22;33219;47.410;9.730;2023-02-01T17:58:24;5.20;99.90
47482;DHT22;33219;47.410;9.730;2023-02-01T18:00:55;5.30;99.80
47482;DHT22;33219;47.410;9.730;2023-02-01T18:03:28;5.30;99.90
47482;DHT22;33219;47.410;9.730;2023-02-01T18:05:58;5.20;99.90
47482;DHT22;33219;47.410;9.730;2023-02-01T18:08:29;5.20;99.90
47482;DHT22;33219;47.410;9.730;2023-02-01T18:11:00;5.20;99.90
47482;DHT22;33219;47.410;9.730;2023-02-01T18:13:29;5.20;99.90
47482;DHT22;33219;47.410;9.730;2023-02-01T18:15:59;5.20;99.90
47482;DHT22;33219;47.410;9.730;2023-02-01T18:18:29;5.20;99.90
47482;DHT22;33219;47.410;9.730;2023-02-01T18:20:59;5.20;99.90
47482;DHT22;33219;47.410;9.730;2023-02-01T18:23:27;5.30;99.50
47482;DHT22;33219;47.410;9.730;2023-02-01T18:25:55;5.30;99.60
47482;DHT22;33219;47.410;9.730;2023-02-01T18:28:23;5.30;99.60
47482;DHT22;33219;47.410;9.730;2023-02-01T18:30:51;5.30;99.70
47482;DHT22;33219;47.410;9.730;2023-02-01T18:33:20;5.30;99.90
47482;DHT22;33219;47.410;9.730;2023-02-01T18:35:48;5.30;99.70
47482;DHT22;33219;47.410;9.730;2023-02-01T18:38:18;5.30;99.80
47482;DHT22;33219;47.410;9.730;2023-02-01T18:40:49;5.40;99.70
47482;DHT22;33219;47.410;9.730;2023-02-01T18:43:18;5.30;99.80
47482;DHT22;33219;47.410;9.730;2023-02-01T18:45:48;5.30;99.90
47482;DHT22;33219;47.410;9.730;2023-02-01T18:48:16;5.30;99.90
47482;DHT22;33219;47.410;9.730;2023-02-01T18:50:46;5.20;99.90
47482;DHT22;33219;47.410;9.730;2023-02-01T18:53:32;5.20;99.90
47482;DHT22;33219;47.410;9.730;2023-02-01T18:56:00;5.20;99.90
47482;DHT22;33219;47.410;9.730;2023-02-01T18:58:28;5.20;99.90
47482;DHT22;33219;47.410;9.730;2023-02-01T19:01:03;5.40;99.70
47482;DHT22;33219;47.410;9.730;2023-02-01T19:03:28;5.50;99.00
47482;DHT22;33219;47.410;9.730;2023-02-01T19:05:57;5.50;99.00
47482;DHT22;33219;47.410;9.730;2023-02-01T19:08:25;5.50;99.40
47482;DHT22;33219;47.410;9.730;2023-02-01T19:10:53;5.50;99.40
47482;DHT22;33219;47.410;9.730;2023-02-01T19:13:22;5.50;99.40
47482;DHT22;33219;47.410;9.730;2023-02-01T19:15:52;5.50;99.60
47482;DHT22;33219;47.410;9.730;2023-02-01T19:18:20;5.40;99.70
47482;DHT22;33219;47.410;9.730;2023-02-01T19:20:48;5.30;99.90
47482;DHT22;33219;47.410;9.730;2023-02-01T19:23:18;5.30;99.90
47482;DHT22;33219;47.410;9.730;2023-02-01T19:25:46;5.30;99.90
47482;DHT22;33219;47.410;9.730;2023-02-01T19:28:15;5.20;99.90
47482;DHT22;33219;47.410;9.730;2023-02-01T19:30:43;5.10;99.90
47482;DHT22;33219;47.410;9.730;2023-02-01T19:33:11;5.10;99.90
47482;DHT22;33219;47.410;9.730;2023-02-01T19:35:39;5.10;99.90
47482;DHT22;33219;47.410;9.730;2023-02-01T19:38:07;5.30;99.90
47482;DHT22;33219;47.410;9.730;2023-02-01T19:40:37;5.30;99.90
47482;DHT22;33219;47.410;9.730;2023-02-01T19:43:05;5.30;99.80
47482;DHT22;33219;47.410;9.730;2023-02-01T19:45:33;5.20;99.90
47482;DHT22;33219;47.410;9.730;2023-02-01T19:48:01;5.30;99.90
47482;DHT22;33219;47.410;9.730;2023-02-01T19:50:31;5.20;99.90
47482;DHT22;33219;47.410;9.730;2023-02-01T19:52:58;5.20;99.90
47482;DHT22;33219;47.410;9.730;2023-02-01T19:55:26;5.20;99.90
47482;DHT22;33219;47.410;9.730;2023-02-01T19:57:54;5.10;99.90
47482;DHT22;33219;47.410;9.730;2023-02-01T20:00:23;5.10;99.90
47482;DHT22;33219;47.410;9.730;2023-02-01T20:02:54;5.10;99.90
47482;DHT22;33219;47.410;9.730;2023-02-01T20:05:23;5.00;99.90
47482;DHT22;33219;47.410;9.730;2023-02-01T20:07:51;5.00;99.90
47482;DHT22;33219;47.410;9.730;2023-02-01T20:10:21;5.00;99.90
47482;DHT22;33219;47.410;9.730;2023-02-01T20:12:49;5.00;99.90
47482;DHT22;33219;47.410;9.730;2023-02-01T20:15:17;5.00;99.90
47482;DHT22;33219;47.410;9.730;2023-02-01T20:17:45;5.00;99.90
47482;DHT22;33219;47.410;9.730;2023-02-01T20:20:13;5.10;99.90
47482;DHT22;33219;47.410;9.730;2023-02-01T20:22:41;5.10;99.90
47482;DHT22;33219;47.410;9.730;2023-02-01T20:25:11;5.10;99.90
47482;DHT22;33219;47.410;9.730;2023-02-01T20:27:39;5.10;99.90